createdAt,value
2018-06-09T00:00:49.986Z,97566.11
2018-06-09T00:01:54.826Z,97561.97
2018-06-09T00:02:59.575Z,97560.22
2018-06-09T00:04:04.337Z,97560.98
2018-06-09T00:05:09.053Z,97563.02
2018-06-09T00:06:15.178Z,97560.70
2018-06-09T00:07:21.667Z,97564.33
2018-06-09T00:08:26.444Z,97566.47
2018-06-09T00:09:31.827Z,97561.84
2018-06-09T00:10:36.855Z,97562.80
2018-06-09T00:11:41.654Z,97557.56
2018-06-09T00:12:46.385Z,97563.48
2018-06-09T00:13:52.234Z,97559.67
2018-06-09T00:14:57.947Z,97559.10
2018-06-09T00:16:05.494Z,97560.42
2018-06-09T00:17:10.288Z,97559.39
2018-06-09T00:18:15.399Z,97564.44
2018-06-09T00:19:22.109Z,97556.14
2018-06-09T00:20:27.847Z,97565.38
2018-06-09T00:21:33.274Z,97562.50
2018-06-09T00:22:39.774Z,97561.09
2018-06-09T00:23:44.855Z,97567.31
2018-06-09T00:24:50.000Z,97569.77
2018-06-09T00:25:55.709Z,97561.23
2018-06-09T00:27:00.458Z,97562.42
2018-06-09T00:28:05.215Z,97567.33
2018-06-09T00:29:09.997Z,97557.72
2018-06-09T00:30:14.767Z,97563.70
2018-06-09T00:31:19.969Z,97557.19
2018-06-09T00:32:24.773Z,97562.48
2018-06-09T00:33:29.567Z,97559.11
2018-06-09T00:34:35.110Z,97560.53
2018-06-09T00:35:41.443Z,97555.06
2018-06-09T00:36:46.176Z,97556.09
2018-06-09T00:37:51.336Z,97553.09
2018-06-09T00:38:56.184Z,97548.38
2018-06-09T00:40:01.524Z,97552.84
2018-06-09T00:41:06.585Z,97554.31
2018-06-09T00:42:11.364Z,97555.00
2018-06-09T00:43:16.117Z,97557.27
2018-06-09T00:44:21.241Z,97559.67
2018-06-09T00:45:25.970Z,97558.64
2018-06-09T00:46:30.752Z,97557.75
2018-06-09T00:47:35.476Z,97558.55
2018-06-09T00:48:40.576Z,97562.68
2018-06-09T00:49:46.288Z,97558.86
2018-06-09T00:50:52.554Z,97558.64
2018-06-09T00:51:57.273Z,97554.92
2018-06-09T00:53:02.043Z,97556.38
2018-06-09T00:54:06.795Z,97554.83
2018-06-09T00:55:12.916Z,97556.57
2018-06-09T00:56:23.309Z,97555.11
2018-06-09T00:57:28.177Z,97555.25
2018-06-09T00:58:32.934Z,97560.47
2018-06-09T00:59:37.781Z,97553.92
2018-06-09T01:00:42.630Z,97560.33
2018-06-09T01:01:47.457Z,97559.61
2018-06-09T01:02:52.682Z,97562.41
2018-06-09T01:03:57.445Z,97562.34
2018-06-09T01:05:02.197Z,97556.05
2018-06-09T01:06:08.990Z,97562.31
2018-06-09T01:07:13.901Z,97555.30
2018-06-09T01:08:18.756Z,97553.41
2018-06-09T01:09:23.547Z,97554.07
2018-06-09T01:10:28.666Z,97558.73
2018-06-09T01:11:33.408Z,97556.62
2018-06-09T01:12:38.122Z,97555.85
2018-06-09T01:13:42.885Z,97559.00
2018-06-09T01:14:51.108Z,97563.73
2018-06-09T01:15:57.707Z,97561.59
2018-06-09T01:17:02.454Z,97558.64
2018-06-09T01:18:07.188Z,97559.54
2018-06-09T01:19:11.953Z,97563.77
2018-06-09T01:20:16.864Z,97563.91
2018-06-09T01:21:22.732Z,97562.69
2018-06-09T01:22:29.086Z,97563.49
2018-06-09T01:23:33.805Z,97563.18
2018-06-09T01:24:39.302Z,97559.36
2018-06-09T01:25:44.047Z,97567.38
2018-06-09T01:26:49.366Z,97567.38
2018-06-09T01:27:56.796Z,97567.89
2018-06-09T01:29:01.620Z,97568.22
2018-06-09T01:30:06.345Z,97569.68
2018-06-09T01:31:11.136Z,97568.88
2018-06-09T01:32:15.906Z,97569.40
2018-06-09T01:33:21.948Z,97570.05
2018-06-09T01:34:27.080Z,97570.53
2018-06-09T01:35:32.744Z,97573.22
2018-06-09T01:36:37.539Z,97571.66
2018-06-09T01:37:44.379Z,97567.91
2018-06-09T01:38:50.117Z,97568.48
2018-06-09T01:39:54.839Z,97563.20
2018-06-09T01:41:02.406Z,97566.08
2018-06-09T01:42:07.466Z,97563.72
2018-06-09T01:43:12.500Z,97561.42
2018-06-09T01:44:18.073Z,97563.98
2018-06-09T01:45:24.355Z,97561.30
2018-06-09T01:46:29.400Z,97562.82
2018-06-09T01:47:34.171Z,97564.03
2018-06-09T01:48:39.213Z,97564.83
2018-06-09T01:49:44.059Z,97563.89
2018-06-09T01:50:48.731Z,97559.27
2018-06-09T01:51:54.528Z,97560.27
2018-06-09T01:52:59.937Z,97559.66
2018-06-09T01:54:04.606Z,97553.44
2018-06-09T01:55:10.509Z,97554.64
2018-06-09T01:56:15.212Z,97552.47
2018-06-09T01:57:23.012Z,97551.06
2018-06-09T01:58:28.522Z,97550.92
2018-06-09T01:59:36.335Z,97553.74
2018-06-09T02:00:41.072Z,97544.52
2018-06-09T02:01:47.375Z,97548.42
2018-06-09T02:02:52.296Z,97551.16
2018-06-09T02:03:57.006Z,97547.95
2018-06-09T02:05:02.667Z,97550.77
2018-06-09T02:06:07.788Z,97552.08
2018-06-09T02:07:12.479Z,97549.45
2018-06-09T02:08:17.170Z,97555.44
2018-06-09T02:09:21.945Z,97552.76
2018-06-09T02:10:26.661Z,97554.25
2018-06-09T02:11:33.979Z,97555.33
2018-06-09T02:12:38.716Z,97555.42
2018-06-09T02:13:44.499Z,97545.58
2018-06-09T02:14:49.196Z,97551.61
2018-06-09T02:15:53.884Z,97551.33
2018-06-09T02:16:58.594Z,97555.89
2018-06-09T02:18:03.804Z,97553.95
2018-06-09T02:19:08.557Z,97553.56
2018-06-09T02:20:13.819Z,97553.02
2018-06-09T02:21:18.609Z,97550.88
2018-06-09T02:22:23.377Z,97549.89
2018-06-09T02:23:28.692Z,97550.69
2018-06-09T02:24:33.441Z,97550.50
2018-06-09T02:25:38.163Z,97551.16
2018-06-09T02:26:42.839Z,97553.31
2018-06-09T02:27:47.537Z,97559.94
2018-06-09T02:28:52.899Z,97556.97
2018-06-09T02:29:57.901Z,97551.89
2018-06-09T02:31:02.913Z,97553.25
2018-06-09T02:32:07.614Z,97550.76
2018-06-09T02:33:12.376Z,97550.64
2018-06-09T02:34:17.694Z,97547.02
2018-06-09T02:35:22.408Z,97547.41
2018-06-09T02:36:27.440Z,97546.28
2018-06-09T02:37:32.141Z,97543.16
2018-06-09T02:38:36.791Z,97547.30
2018-06-09T02:39:42.318Z,97542.41
2018-06-09T02:40:46.987Z,97544.21
2018-06-09T02:41:51.648Z,97545.68
2018-06-09T02:42:57.394Z,97553.49
2018-06-09T02:44:02.045Z,97555.23
2018-06-09T02:45:06.740Z,97559.45
2018-06-09T02:46:11.427Z,97554.51
2018-06-09T02:47:16.156Z,97562.32
2018-06-09T02:48:20.853Z,97558.65
2018-06-09T02:49:25.873Z,97564.20
2018-06-09T02:50:30.554Z,97567.41
2018-06-09T02:51:35.258Z,97561.27
2018-06-09T02:52:39.996Z,97561.98
2018-06-09T02:53:44.665Z,97569.20
2018-06-09T02:54:52.070Z,97571.03
2018-06-09T02:55:57.250Z,97572.69
2018-06-09T02:57:02.108Z,97567.88
2018-06-09T02:58:06.811Z,97566.28
2018-06-09T02:59:11.456Z,97566.67
2018-06-09T03:00:16.153Z,97568.00
2018-06-09T03:01:20.821Z,97566.98
2018-06-09T03:02:25.823Z,97567.31
2018-06-09T03:03:30.505Z,97571.41
2018-06-09T03:04:35.231Z,97571.15
2018-06-09T03:05:39.942Z,97566.48
2018-06-09T03:06:44.621Z,97566.34
2018-06-09T03:07:51.004Z,97570.48
2018-06-09T03:08:55.980Z,97570.82
2018-06-09T03:10:00.761Z,97566.73
2018-06-09T03:11:05.598Z,97568.00
2018-06-09T03:12:10.437Z,97560.59
2018-06-09T03:13:15.225Z,97559.66
2018-06-09T03:14:20.027Z,97559.33
2018-06-09T03:15:25.109Z,97559.86
2018-06-09T03:16:29.989Z,97556.24
2018-06-09T03:17:34.840Z,97561.45
2018-06-09T03:18:39.636Z,97556.57
2018-06-09T03:19:44.445Z,97556.52
2018-06-09T03:20:50.647Z,97554.77
2018-06-09T03:21:56.713Z,97551.98
2018-06-09T03:23:01.486Z,97560.41
2018-06-09T03:24:06.344Z,97557.53
2018-06-09T03:25:11.249Z,97556.13
2018-06-09T03:26:16.044Z,97559.65
2018-06-09T03:27:20.854Z,97561.34
2018-06-09T03:28:26.231Z,97557.17
2018-06-09T03:29:31.037Z,97555.42
2018-06-09T03:30:35.844Z,97561.67
2018-06-09T03:31:40.637Z,97556.27
2018-06-09T03:32:45.410Z,97559.05
2018-06-09T03:33:50.653Z,97554.91
2018-06-09T03:34:55.740Z,97553.64
2018-06-09T03:36:00.572Z,97551.91
2018-06-09T03:37:05.441Z,97557.84
2018-06-09T03:38:10.324Z,97556.63
2018-06-09T03:39:15.131Z,97554.58
2018-06-09T03:40:19.994Z,97549.50
2018-06-09T03:41:25.083Z,97550.48
2018-06-09T03:42:29.899Z,97552.69
2018-06-09T03:43:34.737Z,97549.29
2018-06-09T03:44:39.530Z,97547.09
2018-06-09T03:45:45.239Z,97551.89
2018-06-09T03:46:50.070Z,97549.44
2018-06-09T03:47:57.251Z,97550.57
2018-06-09T03:49:02.035Z,97557.97
2018-06-09T03:50:07.671Z,97551.89
2018-06-09T03:51:13.335Z,97552.77
2018-06-09T03:52:18.615Z,97552.11
2018-06-09T03:53:24.200Z,97554.04
2018-06-09T03:54:29.972Z,97551.69
2018-06-09T03:55:37.847Z,97557.52
2018-06-09T03:56:43.986Z,97553.31
2018-06-09T03:57:48.669Z,97552.57
2018-06-09T03:58:53.358Z,97554.37
2018-06-09T03:59:58.112Z,97553.25
2018-06-09T04:01:03.152Z,97549.16
2018-06-09T04:02:07.838Z,97553.37
2018-06-09T04:03:12.496Z,97550.00
2018-06-09T04:04:17.223Z,97551.94
2018-06-09T04:05:21.961Z,97551.13
2018-06-09T04:06:26.658Z,97557.34
2018-06-09T04:07:31.882Z,97552.08
2018-06-09T04:08:36.596Z,97559.31
2018-06-09T04:09:41.889Z,97555.70
2018-06-09T04:10:46.600Z,97554.15
2018-06-09T04:11:51.308Z,97556.08
2018-06-09T04:12:59.937Z,97556.52
2018-06-09T04:14:05.132Z,97555.91
2018-06-09T04:15:09.844Z,97556.05
2018-06-09T04:16:14.509Z,97555.44
2018-06-09T04:17:19.181Z,97550.83
2018-06-09T04:18:23.862Z,97554.96
2018-06-09T04:19:29.767Z,97553.22
2018-06-09T04:20:38.912Z,97555.58
2018-06-09T04:21:43.580Z,97559.22
2018-06-09T04:22:48.276Z,97564.83
2018-06-09T04:23:53.016Z,97566.95
2018-06-09T04:24:58.650Z,97563.47
2018-06-09T04:26:04.228Z,97565.20
2018-06-09T04:27:11.287Z,97572.84
2018-06-09T04:28:17.039Z,97568.13
2018-06-09T04:29:21.743Z,97567.84
2018-06-09T04:30:26.443Z,97565.77
2018-06-09T04:31:31.153Z,97566.43
2018-06-09T04:32:35.842Z,97562.27
2018-06-09T04:33:40.860Z,97564.99
2018-06-09T04:34:45.632Z,97572.11
2018-06-09T04:35:50.548Z,97568.63
2018-06-09T04:36:55.343Z,97575.73
2018-06-09T04:38:00.060Z,97570.25
2018-06-09T04:39:06.581Z,97569.59
2018-06-09T04:40:11.609Z,97567.92
2018-06-09T04:41:16.552Z,97563.53
2018-06-09T04:42:21.300Z,97563.63
2018-06-09T04:43:26.044Z,97564.77
2018-06-09T04:44:30.824Z,97566.98
2018-06-09T04:45:36.104Z,97560.38
2018-06-09T04:46:40.811Z,97570.73
2018-06-09T04:47:45.546Z,97565.98
2018-06-09T04:48:50.238Z,97565.04
2018-06-09T04:49:54.948Z,97567.30
2018-06-09T04:50:59.696Z,97566.61
2018-06-09T04:52:04.732Z,97568.21
2018-06-09T04:53:09.405Z,97570.24
2018-06-09T04:54:14.680Z,97568.75
2018-06-09T04:55:19.428Z,97568.61
2018-06-09T04:56:24.332Z,97569.48
2018-06-09T04:57:29.037Z,97567.88
2018-06-09T04:58:34.160Z,97570.14
2018-06-09T04:59:38.838Z,97576.83
2018-06-09T05:00:43.591Z,97567.96
2018-06-09T05:01:48.305Z,97568.00
2018-06-09T05:02:55.002Z,97569.23
2018-06-09T05:03:59.826Z,97562.00
2018-06-09T05:05:04.979Z,97564.70
2018-06-09T05:06:09.692Z,97568.55
2018-06-09T05:07:17.269Z,97563.56
2018-06-09T05:08:21.921Z,97570.73
2018-06-09T05:09:27.146Z,97569.64
2018-06-09T05:10:31.901Z,97569.20
2018-06-09T05:11:37.058Z,97574.95
2018-06-09T05:12:41.748Z,97573.42
2018-06-09T05:13:46.604Z,97572.22
2018-06-09T05:14:51.985Z,97571.38
2018-06-09T05:15:56.709Z,97571.56
2018-06-09T05:17:01.428Z,97572.91
2018-06-09T05:18:06.589Z,97567.02
2018-06-09T05:19:13.073Z,97573.61
2018-06-09T05:20:18.106Z,97572.59
2018-06-09T05:21:22.864Z,97574.15
2018-06-09T05:22:28.012Z,97573.64
2018-06-09T05:23:33.600Z,97574.91
2018-06-09T05:24:39.411Z,97574.80
2018-06-09T05:25:44.137Z,97576.11
2018-06-09T05:26:48.827Z,97572.58
2018-06-09T05:27:53.605Z,97571.88
2018-06-09T05:28:58.346Z,97573.02
2018-06-09T05:30:03.261Z,97578.14
2018-06-09T05:31:09.455Z,97572.87
2018-06-09T05:32:14.300Z,97571.08
2018-06-09T05:33:19.193Z,97575.74
2018-06-09T05:34:24.020Z,97576.77
2018-06-09T05:35:28.816Z,97572.11
2018-06-09T05:36:35.417Z,97577.56
2018-06-09T05:37:40.593Z,97571.24
2018-06-09T05:38:45.435Z,97574.00
2018-06-09T05:39:50.309Z,97579.17
2018-06-09T05:40:55.206Z,97579.72
2018-06-09T05:42:00.033Z,97579.72
2018-06-09T05:43:05.456Z,97581.46
2018-06-09T05:44:13.681Z,97582.98
2018-06-09T05:45:18.581Z,97582.63
2018-06-09T05:46:23.438Z,97578.97
2018-06-09T05:47:28.442Z,97579.90
2018-06-09T05:48:33.363Z,97585.17
2018-06-09T05:49:39.520Z,97582.70
2018-06-09T05:50:45.714Z,97587.23
2018-06-09T05:51:52.466Z,97580.68
2018-06-09T05:52:58.454Z,97588.33
2018-06-09T05:54:03.448Z,97589.06
2018-06-09T05:55:08.481Z,97590.15
2018-06-09T05:56:13.304Z,97586.90
2018-06-09T05:57:18.617Z,97580.70
2018-06-09T05:58:24.216Z,97587.45
2018-06-09T05:59:29.362Z,97576.25
2018-06-09T06:00:34.438Z,97574.53
2018-06-09T06:01:39.322Z,97579.78
2018-06-09T06:02:44.212Z,97583.22
2018-06-09T06:03:50.812Z,97581.20
2018-06-09T06:04:57.513Z,97580.19
2018-06-09T06:06:02.403Z,97584.43
2018-06-09T06:07:07.329Z,97581.86
2018-06-09T06:08:12.193Z,97584.18
2018-06-09T06:09:17.667Z,97583.23
2018-06-09T06:10:23.043Z,97590.68
2018-06-09T06:11:29.191Z,97584.09
2018-06-09T06:12:35.546Z,97585.36
2018-06-09T06:13:40.264Z,97588.16
2018-06-09T06:14:44.943Z,97586.51
2018-06-09T06:15:49.646Z,97589.23
2018-06-09T06:16:54.953Z,97592.45
2018-06-09T06:17:59.671Z,97598.55
2018-06-09T06:19:04.360Z,97594.20
2018-06-09T06:20:09.352Z,97595.64
2018-06-09T06:21:14.955Z,97598.39
2018-06-09T06:22:20.633Z,97596.30
2018-06-09T06:23:26.765Z,97594.73
2018-06-09T06:24:31.428Z,97598.30
2018-06-09T06:25:36.091Z,97599.10
2018-06-09T06:26:41.342Z,97597.69
2018-06-09T06:27:46.408Z,97602.27
2018-06-09T06:28:51.163Z,97603.74
2018-06-09T06:29:56.513Z,97602.39
2018-06-09T06:31:02.326Z,97605.74
2018-06-09T06:32:07.133Z,97611.33
2018-06-09T06:33:11.952Z,97605.60
2018-06-09T06:34:17.206Z,97611.05
2018-06-09T06:35:23.453Z,97609.95
2018-06-09T06:36:29.493Z,97614.54
2018-06-09T06:37:34.297Z,97609.16
2018-06-09T06:38:39.377Z,97607.94
2018-06-09T06:39:44.164Z,97601.90
2018-06-09T06:40:48.986Z,97604.95
2018-06-09T06:41:54.172Z,97608.13
2018-06-09T06:42:59.310Z,97608.78
2018-06-09T06:44:04.202Z,97604.80
2018-06-09T06:45:10.022Z,97606.89
2018-06-09T06:46:14.833Z,97603.52
2018-06-09T06:47:19.762Z,97613.11
2018-06-09T06:48:25.781Z,97608.29
2018-06-09T06:49:31.311Z,97617.73
2018-06-09T06:50:37.372Z,97617.41
2018-06-09T06:51:42.262Z,97622.67
2018-06-09T06:52:47.240Z,97624.58
2018-06-09T06:53:52.048Z,97626.20
2018-06-09T06:54:57.304Z,97617.72
2018-06-09T06:56:04.328Z,97624.55
2018-06-09T06:57:09.202Z,97618.11
2018-06-09T06:58:14.052Z,97615.87
2018-06-09T06:59:19.000Z,97621.36
2018-06-09T07:00:24.513Z,97613.23
2018-06-09T07:01:30.614Z,97620.28
2018-06-09T07:02:38.193Z,97621.27
2018-06-09T07:03:43.427Z,97617.58
2018-06-09T07:04:48.142Z,97618.39
2018-06-09T07:05:52.986Z,97620.30
2018-06-09T07:06:58.200Z,97624.93
2018-06-09T07:08:02.954Z,97619.94
2018-06-09T07:09:08.898Z,97620.25
2018-06-09T07:10:13.814Z,97621.69
2018-06-09T07:11:18.635Z,97625.06
2018-06-09T07:12:24.375Z,97625.22
2018-06-09T07:13:29.239Z,97620.12
2018-06-09T07:14:34.134Z,97628.13
2018-06-09T07:15:39.818Z,97619.81
2018-06-09T07:16:59.661Z,97625.85
2018-06-09T07:18:05.700Z,97624.08
2018-06-09T07:19:12.364Z,97622.94
2018-06-09T07:25:49.244Z,97627.08
2018-06-09T07:26:54.173Z,97627.38
2018-06-09T07:28:03.675Z,97629.19
2018-06-09T07:29:08.742Z,97623.89
2018-06-09T07:30:14.856Z,97621.81
2018-06-09T07:31:20.164Z,97622.33
2018-06-09T07:32:25.922Z,97625.48
2018-06-09T07:33:36.971Z,97621.26
2018-06-09T07:34:41.827Z,97622.02
2018-06-09T07:35:47.500Z,97622.56
2018-06-09T07:36:52.349Z,97626.76
2018-06-09T07:37:58.629Z,97626.72
2018-06-09T07:39:05.320Z,97631.22
2018-06-09T07:40:12.161Z,97625.30
2018-06-09T07:41:19.492Z,97626.20
2018-06-09T07:42:27.316Z,97618.47
2018-06-09T07:43:33.440Z,97616.47
2018-06-09T07:44:39.194Z,97614.65
2018-06-09T07:45:45.312Z,97613.71
2018-06-09T07:46:50.411Z,97617.43
2018-06-09T07:47:56.293Z,97615.98
2018-06-09T07:49:04.724Z,97616.41
2018-06-09T07:50:13.258Z,97620.12
2018-06-09T07:51:21.414Z,97615.39
2018-06-09T07:52:27.774Z,97623.08
2018-06-09T07:53:32.720Z,97623.70
2018-06-09T07:54:37.591Z,97621.00
2018-06-09T07:55:42.998Z,97623.67
2018-06-09T07:56:47.964Z,97620.17
2018-06-09T07:57:53.445Z,97619.72
2018-06-09T07:58:58.659Z,97620.12
2018-06-09T08:00:04.266Z,97618.23
2018-06-09T08:01:09.009Z,97619.05
2018-06-09T08:02:18.077Z,97617.88
2018-06-09T08:03:23.847Z,97623.51
2018-06-09T08:04:29.147Z,97620.77
2018-06-09T08:05:35.337Z,97619.66
2018-06-09T08:06:43.080Z,97617.78
2018-06-09T08:07:47.776Z,97622.86
2018-06-09T08:08:53.239Z,97624.31
2018-06-09T08:09:59.114Z,97621.38
2018-06-09T08:11:03.870Z,97623.36
2018-06-09T08:12:09.978Z,97622.83
2018-06-09T08:13:15.170Z,97627.83
2018-06-09T08:14:22.525Z,97624.26
2018-06-09T08:15:27.755Z,97626.09
2018-06-09T08:16:33.011Z,97625.14
2018-06-09T08:17:39.654Z,97627.93
2018-06-09T08:18:51.618Z,97625.72
2018-06-09T08:19:57.266Z,97622.66
2018-06-09T08:21:02.658Z,97619.71
2018-06-09T08:22:09.366Z,97620.11
2018-06-09T08:23:15.926Z,97623.52
2018-06-09T08:24:21.074Z,97619.30
2018-06-09T08:25:26.623Z,97618.31
2018-06-09T08:26:31.722Z,97626.19
2018-06-09T08:27:37.354Z,97619.39
2018-06-09T08:28:42.558Z,97623.55
2018-06-09T08:29:48.046Z,97621.28
2018-06-09T08:30:54.716Z,97622.32
2018-06-09T08:32:00.856Z,97618.39
2018-06-09T08:33:05.822Z,97619.48
2018-06-09T08:34:10.528Z,97618.65
2018-06-09T08:35:16.518Z,97615.84
2018-06-09T08:36:22.490Z,97614.59
2018-06-09T08:37:30.257Z,97617.86
2018-06-09T08:38:37.150Z,97618.41
2018-06-09T08:39:42.414Z,97620.16
2018-06-09T08:40:48.359Z,97621.90
2018-06-09T08:41:56.505Z,97612.59
2018-06-09T08:43:03.773Z,97610.05
2018-06-09T08:44:10.515Z,97612.27
2018-06-09T08:45:17.460Z,97610.41
2018-06-09T08:46:23.836Z,97612.33
2018-06-09T08:47:30.147Z,97609.31
2018-06-09T08:48:35.746Z,97615.59
2018-06-09T08:49:42.505Z,97619.61
2018-06-09T08:50:48.581Z,97613.02
2018-06-09T08:51:53.979Z,97614.01
2018-06-09T08:53:00.656Z,97615.16
2018-06-09T08:54:05.489Z,97610.36
2018-06-09T08:55:10.811Z,97610.85
2018-06-09T08:56:16.426Z,97608.71
2018-06-09T08:57:23.873Z,97613.36
2018-06-09T08:58:28.735Z,97614.56
2018-06-09T08:59:33.640Z,97616.05
2018-06-09T09:00:38.525Z,97615.16
2018-06-09T09:01:44.248Z,97619.83
2018-06-09T09:02:50.790Z,97612.41
2018-06-09T09:03:55.748Z,97614.84
2018-06-09T09:05:00.644Z,97617.84
2018-06-09T09:06:06.322Z,97613.91
2018-06-09T09:07:11.818Z,97612.52
2018-06-09T09:08:17.041Z,97605.42
2018-06-09T09:09:22.796Z,97608.41
2018-06-09T09:10:28.313Z,97610.84
2018-06-09T09:11:33.648Z,97611.56
2018-06-09T09:12:40.294Z,97612.50
2018-06-09T09:13:47.401Z,97606.66
2018-06-09T09:14:53.357Z,97607.45
2018-06-09T09:15:59.534Z,97607.45
2018-06-09T09:17:04.468Z,97608.73
2018-06-09T09:18:11.142Z,97600.53
2018-06-09T09:19:16.786Z,97603.83
2018-06-09T09:20:24.919Z,97606.55
2018-06-09T09:21:29.671Z,97605.23
2018-06-09T09:22:34.527Z,97604.66
2018-06-09T09:23:40.027Z,97602.83
2018-06-09T09:24:44.754Z,97604.68
2018-06-09T09:25:49.628Z,97601.77
2018-06-09T09:26:55.395Z,97603.58
2018-06-09T09:28:01.949Z,97603.92
2018-06-09T09:29:08.944Z,97593.44
2018-06-09T09:30:16.258Z,97595.27
2018-06-09T09:31:22.451Z,97594.56
2018-06-09T09:32:27.537Z,97594.78
2018-06-09T09:33:32.253Z,97594.03
2018-06-09T09:34:40.107Z,97593.77
2018-06-09T09:35:44.978Z,97591.89
2018-06-09T09:36:50.143Z,97591.78
2018-06-09T09:37:55.333Z,97592.83
2018-06-09T09:39:03.128Z,97595.61
2018-06-09T09:40:09.538Z,97595.75
2018-06-09T09:41:15.443Z,97590.50
2018-06-09T09:42:20.708Z,97592.73
2018-06-09T09:43:25.527Z,97589.11
2018-06-09T09:44:43.093Z,97588.58
2018-06-09T09:45:51.004Z,97591.30
2018-06-09T09:46:56.408Z,97588.73
2018-06-09T09:48:01.913Z,97588.41
2018-06-09T09:49:07.536Z,97589.64
2018-06-09T09:50:12.416Z,97588.64
2018-06-09T09:51:17.901Z,97594.56
2018-06-09T09:52:23.617Z,97586.53
2018-06-09T09:53:29.430Z,97582.34
2018-06-09T09:54:36.595Z,97590.83
2018-06-09T09:55:42.096Z,97587.16
2018-06-09T09:56:47.873Z,97583.63
2018-06-09T09:58:00.053Z,97585.92
2018-06-09T09:59:06.357Z,97583.36
2018-06-09T10:00:11.313Z,97583.18
2018-06-09T10:01:16.996Z,97584.25
2018-06-09T10:02:23.203Z,97575.86
2018-06-09T10:03:29.257Z,97580.90
2018-06-09T10:04:35.770Z,97578.66
2018-06-09T10:05:45.339Z,97581.59
2018-06-09T10:06:51.572Z,97581.19
2018-06-09T10:07:57.920Z,97582.80
2018-06-09T10:09:02.867Z,97585.75
2018-06-09T10:10:09.353Z,97583.59
2018-06-09T10:11:14.577Z,97577.49
2018-06-09T10:12:21.267Z,97582.08
2018-06-09T10:13:27.649Z,97579.64
2018-06-09T10:14:33.385Z,97581.66
2018-06-09T10:15:39.946Z,97576.20
2018-06-09T10:16:45.686Z,97580.23
2018-06-09T10:17:50.528Z,97580.10
2018-06-09T10:18:56.341Z,97580.88
2018-06-09T10:20:04.167Z,97581.03
2018-06-09T10:21:09.353Z,97579.30
2018-06-09T10:22:17.318Z,97578.30
2018-06-09T10:23:24.731Z,97582.45
2018-06-09T10:24:30.658Z,97582.86
2018-06-09T10:25:35.762Z,97582.17
2018-06-09T10:26:41.227Z,97571.94
2018-06-09T10:27:47.307Z,97574.55
2018-06-09T10:28:52.152Z,97580.23
2018-06-09T10:29:59.126Z,97577.50
2018-06-09T10:31:03.955Z,97581.44
2018-06-09T10:32:09.983Z,97584.50
2018-06-09T10:33:15.124Z,97576.92
2018-06-09T10:34:20.015Z,97569.67
2018-06-09T10:35:26.385Z,97570.94
2018-06-09T10:36:31.511Z,97578.33
2018-06-09T10:37:36.366Z,97580.10
2018-06-09T10:38:42.232Z,97571.45
2018-06-09T10:45:18.910Z,97565.84
2018-06-09T10:46:25.350Z,97568.75
2018-06-09T10:47:31.230Z,97569.75
2018-06-09T10:48:36.139Z,97571.34
2018-06-09T10:49:40.977Z,97556.63
2018-06-09T10:50:47.133Z,97558.78
2018-06-09T10:51:53.535Z,97560.83
2018-06-09T10:53:00.877Z,97566.22
2018-06-09T10:54:07.573Z,97557.59
2018-06-09T10:55:12.989Z,97558.96
2018-06-09T10:56:17.867Z,97554.70
2018-06-09T10:57:24.277Z,97561.19
2018-06-09T10:58:31.415Z,97555.50
2018-06-09T10:59:36.253Z,97554.02
2018-06-09T11:00:43.291Z,97565.00
2018-06-09T11:01:52.430Z,97565.09
2018-06-09T11:02:59.387Z,97559.46
2018-06-09T11:04:16.018Z,97558.36
2018-06-09T11:05:24.148Z,97559.57
2018-06-09T11:06:30.373Z,97559.86
2018-06-09T11:07:35.805Z,97559.80
2018-06-09T11:08:43.800Z,97551.48
2018-06-09T11:09:49.460Z,97557.45
2018-06-09T11:10:57.675Z,97547.37
2018-06-09T11:12:03.504Z,97555.91
2018-06-09T11:13:10.150Z,97557.90
2018-06-09T11:14:16.750Z,97550.12
2018-06-09T11:15:24.794Z,97553.08
2018-06-09T11:16:30.349Z,97557.83
2018-06-09T11:17:36.510Z,97553.31
2018-06-09T11:18:42.316Z,97557.13
2018-06-09T11:19:47.442Z,97544.16
2018-06-09T11:20:54.368Z,97549.72
2018-06-09T11:21:59.814Z,97547.84
2018-06-09T11:23:08.648Z,97549.49
2018-06-09T11:24:17.870Z,97538.03
2018-06-09T11:25:23.582Z,97540.31
2018-06-09T11:26:29.492Z,97547.11
2018-06-09T11:27:35.262Z,97544.66
2018-06-09T11:28:41.450Z,97542.34
2018-06-09T11:29:46.185Z,97544.78
2018-06-09T11:30:51.305Z,97539.09
2018-06-09T11:31:56.228Z,97539.80
2018-06-09T11:33:01.156Z,97543.77
2018-06-09T11:34:06.375Z,97542.86
2018-06-09T11:35:11.830Z,97538.58
2018-06-09T11:36:20.624Z,97532.09
2018-06-09T11:37:27.371Z,97533.64
2018-06-09T11:38:34.381Z,97540.05
2018-06-09T11:39:39.264Z,97533.77
2018-06-09T11:40:44.117Z,97534.20
2018-06-09T11:41:51.000Z,97530.91
2018-06-09T11:42:55.962Z,97544.77
2018-06-09T11:44:01.538Z,97541.27
2018-06-09T11:45:08.532Z,97539.02
2018-06-09T11:46:16.894Z,97535.94
2018-06-09T11:47:27.773Z,97534.11
2018-06-09T11:48:36.188Z,97528.59
2018-06-09T11:49:41.928Z,97526.66
2018-06-09T11:50:47.992Z,97527.98
2018-06-09T11:51:53.645Z,97518.66
2018-06-09T11:52:58.515Z,97514.20
2018-06-09T11:54:04.238Z,97527.55
2018-06-09T11:55:10.065Z,97516.89
2018-06-09T11:56:14.905Z,97509.92
2018-06-09T11:57:21.469Z,97509.95
2018-06-09T11:58:26.447Z,97509.34
2018-06-09T11:59:31.275Z,97508.42
2018-06-09T12:00:36.753Z,97499.88
2018-06-09T12:01:41.662Z,97504.84
2018-06-09T12:02:49.452Z,97508.23
2018-06-09T12:03:55.770Z,97506.44
2018-06-09T12:05:24.564Z,97502.52
2018-06-09T12:06:32.057Z,97508.75
2018-06-09T12:07:38.702Z,97506.63
2018-06-09T12:08:44.149Z,97501.97
2018-06-09T12:09:49.188Z,97500.53
2018-06-09T12:10:57.761Z,97495.86
2018-06-09T12:12:05.519Z,97500.33
2018-06-09T12:13:11.339Z,97500.95
2018-06-09T12:14:22.578Z,97497.12
2018-06-09T12:15:32.031Z,97497.36
2018-06-09T12:16:37.738Z,97501.45
2018-06-09T12:17:42.550Z,97490.36
2018-06-09T12:18:50.345Z,97498.55
2018-06-09T12:19:55.226Z,97496.95
2018-06-09T12:21:00.238Z,97488.50
2018-06-09T12:22:05.023Z,97484.05
2018-06-09T12:23:11.200Z,97480.50
2018-06-09T12:24:16.701Z,97486.50
2018-06-09T12:25:23.338Z,97484.53
2018-06-09T12:26:29.719Z,97480.81
2018-06-09T12:27:35.190Z,97486.52
2018-06-09T12:28:41.970Z,97485.12
2018-06-09T12:29:47.337Z,97478.91
2018-06-09T12:30:52.014Z,97477.81
2018-06-09T12:31:57.243Z,97483.64
2018-06-09T12:33:02.570Z,97481.50
2018-06-09T12:34:10.169Z,97488.02
2018-06-09T12:35:15.587Z,97475.00
2018-06-09T12:36:20.327Z,97472.05
2018-06-09T12:37:25.156Z,97475.02
2018-06-09T12:38:31.051Z,97476.03
2018-06-09T12:39:35.777Z,97484.14
2018-06-09T12:40:40.460Z,97484.31
2018-06-09T12:41:46.432Z,97490.25
2018-06-09T12:42:51.566Z,97484.64
2018-06-09T12:43:56.294Z,97476.69
2018-06-09T12:45:02.176Z,97469.03
2018-06-09T12:46:06.933Z,97470.05
2018-06-09T12:47:11.622Z,97470.98
2018-06-09T12:48:16.438Z,97466.45
2018-06-09T12:49:21.227Z,97469.41
2018-06-09T12:50:26.103Z,97466.62
2018-06-09T12:51:31.595Z,97467.17
2018-06-09T12:52:37.296Z,97467.91
2018-06-09T12:53:42.629Z,97466.23
2018-06-09T12:54:48.795Z,97463.44
2018-06-09T12:55:53.611Z,97459.81
2018-06-09T12:57:02.555Z,97467.66
2018-06-09T12:58:07.847Z,97460.47
2018-06-09T12:59:25.750Z,97453.42
2018-06-09T13:00:31.675Z,97452.09
2018-06-09T13:01:38.467Z,97449.84
2018-06-09T13:02:43.590Z,97458.30